Rockport, Indiana
Current Conditions -  °F | °C
As of 3:56 PM on Friday 24 Oct 2014 (Local Time) from KOWB Reporting Station
Clear Clear  
Wind Chill: 69°   Ceiling: Unl
Heat Index: 69°   Visibility: 10mi
Dew Point: 51°   Wind: 8mph
Humidity: 53%   Direction: 260°W
Pressure: 30.05"   Gusts: NA
Location:  37.88°N, 87.05°W
Report Text: KOWB 242056Z 26007KT 10SM CLR 21/11 A3005 RMK AO2 56018 T02050105 SLP175
Loading
Personal Weather Stations






























Interactive Weather Map
Tropical Storm Tracking
New forecast layout! Learn more

10-Day Weather Forecast

Advertisements
Track Severe Weather on mobile